sensor_id;sensor_type;location;lat;lon;timestamp;P1;durP1;ratioP1;P2;durP2;ratioP2
83272;SDS011;73177;51.584;5.188;2023-10-13T00:01:21;20.63;;;8.60;;
83272;SDS011;73177;51.584;5.188;2023-10-13T00:03:50;19.35;;;8.00;;
83272;SDS011;73177;51.584;5.188;2023-10-13T00:06:19;18.80;;;8.13;;
83272;SDS011;73177;51.584;5.188;2023-10-13T00:08:45;18.25;;;8.13;;
83272;SDS011;73177;51.584;5.188;2023-10-13T00:11:13;13.70;;;7.82;;
83272;SDS011;73177;51.584;5.188;2023-10-13T00:13:39;18.30;;;7.55;;
83272;SDS011;73177;51.584;5.188;2023-10-13T00:16:17;16.70;;;7.57;;
83272;SDS011;73177;51.584;5.188;2023-10-13T00:18:46;13.85;;;6.82;;
83272;SDS011;73177;51.584;5.188;2023-10-13T00:21:13;14.25;;;6.20;;
83272;SDS011;73177;51.584;5.188;2023-10-13T00:23:40;14.50;;;7.35;;
83272;SDS011;73177;51.584;5.188;2023-10-13T00:26:18;13.98;;;6.00;;
83272;SDS011;73177;51.584;5.188;2023-10-13T00:28:53;16.05;;;6.90;;
83272;SDS011;73177;51.584;5.188;2023-10-13T00:31:39;18.55;;;8.30;;
83272;SDS011;73177;51.584;5.188;2023-10-13T00:34:08;12.88;;;6.00;;
83272;SDS011;73177;51.584;5.188;2023-10-13T00:37:00;15.07;;;6.85;;
83272;SDS011;73177;51.584;5.188;2023-10-13T00:39:35;13.45;;;6.22;;
83272;SDS011;73177;51.584;5.188;2023-10-13T00:42:04;14.02;;;6.93;;
83272;SDS011;73177;51.584;5.188;2023-10-13T00:44:33;14.63;;;6.85;;
83272;SDS011;73177;51.584;5.188;2023-10-13T00:47:09;19.75;;;6.75;;
83272;SDS011;73177;51.584;5.188;2023-10-13T00:49:41;12.43;;;6.32;;
83272;SDS011;73177;51.584;5.188;2023-10-13T00:52:08;11.60;;;6.68;;
83272;SDS011;73177;51.584;5.188;2023-10-13T00:54:36;16.95;;;6.68;;
83272;SDS011;73177;51.584;5.188;2023-10-13T00:57:02;16.25;;;6.60;;
83272;SDS011;73177;51.584;5.188;2023-10-13T00:59:51;14.13;;;5.57;;
83272;SDS011;73177;51.584;5.188;2023-10-13T01:02:37;14.40;;;6.60;;
83272;SDS011;73177;51.584;5.188;2023-10-13T01:05:06;14.82;;;7.15;;
83272;SDS011;73177;51.584;5.188;2023-10-13T01:07:35;18.98;;;6.65;;
83272;SDS011;73177;51.584;5.188;2023-10-13T01:10:02;11.75;;;6.10;;
83272;SDS011;73177;51.584;5.188;2023-10-13T01:12:38;18.38;;;6.78;;
83272;SDS011;73177;51.584;5.188;2023-10-13T01:15:03;18.15;;;6.97;;
83272;SDS011;73177;51.584;5.188;2023-10-13T01:17:33;15.05;;;6.72;;
83272;SDS011;73177;51.584;5.188;2023-10-13T01:19:59;12.23;;;6.32;;
83272;SDS011;73177;51.584;5.188;2023-10-13T01:22:24;16.27;;;5.55;;
83272;SDS011;73177;51.584;5.188;2023-10-13T01:24:52;14.40;;;6.50;;
83272;SDS011;73177;51.584;5.188;2023-10-13T01:27:29;16.77;;;7.53;;
83272;SDS011;73177;51.584;5.188;2023-10-13T01:29:54;14.52;;;6.28;;
83272;SDS011;73177;51.584;5.188;2023-10-13T01:32:31;15.32;;;6.65;;
83272;SDS011;73177;51.584;5.188;2023-10-13T01:34:56;15.57;;;5.85;;
83272;SDS011;73177;51.584;5.188;2023-10-13T01:37:23;9.60;;;5.97;;
83272;SDS011;73177;51.584;5.188;2023-10-13T01:39:48;15.65;;;5.85;;
83272;SDS011;73177;51.584;5.188;2023-10-13T01:42:15;15.73;;;6.07;;
83272;SDS011;73177;51.584;5.188;2023-10-13T01:44:49;11.88;;;5.88;;
83272;SDS011;73177;51.584;5.188;2023-10-13T01:47:15;16.65;;;6.30;;
83272;SDS011;73177;51.584;5.188;2023-10-13T01:49:41;12.52;;;6.07;;
83272;SDS011;73177;51.584;5.188;2023-10-13T01:52:08;17.88;;;6.30;;
83272;SDS011;73177;51.584;5.188;2023-10-13T01:54:36;13.13;;;5.93;;
83272;SDS011;73177;51.584;5.188;2023-10-13T01:57:05;12.75;;;5.97;;
83272;SDS011;73177;51.584;5.188;2023-10-13T01:59:38;16.92;;;5.47;;
83272;SDS011;73177;51.584;5.188;2023-10-13T02:02:09;16.35;;;6.35;;
83272;SDS011;73177;51.584;5.188;2023-10-13T02:04:44;13.85;;;6.22;;
83272;SDS011;73177;51.584;5.188;2023-10-13T02:07:25;11.35;;;5.93;;
83272;SDS011;73177;51.584;5.188;2023-10-13T02:09:55;12.73;;;5.93;;
83272;SDS011;73177;51.584;5.188;2023-10-13T02:12:22;16.20;;;6.03;;
83272;SDS011;73177;51.584;5.188;2023-10-13T02:15:14;14.20;;;7.00;;
83272;SDS011;73177;51.584;5.188;2023-10-13T02:17:46;12.68;;;6.35;;
83272;SDS011;73177;51.584;5.188;2023-10-13T02:20:16;12.90;;;6.38;;
83272;SDS011;73177;51.584;5.188;2023-10-13T02:22:43;16.08;;;7.13;;
83272;SDS011;73177;51.584;5.188;2023-10-13T02:25:14;13.57;;;6.22;;
83272;SDS011;73177;51.584;5.188;2023-10-13T02:28:03;16.50;;;6.55;;
83272;SDS011;73177;51.584;5.188;2023-10-13T02:30:43;12.55;;;6.82;;
83272;SDS011;73177;51.584;5.188;2023-10-13T02:33:15;12.40;;;6.60;;
83272;SDS011;73177;51.584;5.188;2023-10-13T02:35:46;16.38;;;7.85;;
83272;SDS011;73177;51.584;5.188;2023-10-13T02:38:20;16.60;;;6.85;;
83272;SDS011;73177;51.584;5.188;2023-10-13T02:41:11;18.60;;;7.47;;
83272;SDS011;73177;51.584;5.188;2023-10-13T02:43:44;27.45;;;8.38;;
83272;SDS011;73177;51.584;5.188;2023-10-13T02:46:10;27.37;;;8.50;;
83272;SDS011;73177;51.584;5.188;2023-10-13T02:48:35;18.80;;;7.83;;
83272;SDS011;73177;51.584;5.188;2023-10-13T02:56:15;16.85;;;7.65;;
83272;SDS011;73177;51.584;5.188;2023-10-13T02:58:46;16.98;;;8.00;;
83272;SDS011;73177;51.584;5.188;2023-10-13T03:01:18;19.52;;;8.75;;
83272;SDS011;73177;51.584;5.188;2023-10-13T03:03:46;17.85;;;8.55;;
83272;SDS011;73177;51.584;5.188;2023-10-13T03:06:17;20.52;;;8.85;;
83272;SDS011;73177;51.584;5.188;2023-10-13T03:08:46;16.73;;;8.57;;
83272;SDS011;73177;51.584;5.188;2023-10-13T03:11:12;23.30;;;9.00;;
83272;SDS011;73177;51.584;5.188;2023-10-13T03:13:39;18.75;;;9.02;;
83272;SDS011;73177;51.584;5.188;2023-10-13T03:16:15;21.00;;;10.25;;
83272;SDS011;73177;51.584;5.188;2023-10-13T03:18:48;23.95;;;10.00;;
83272;SDS011;73177;51.584;5.188;2023-10-13T03:21:21;19.67;;;9.18;;
83272;SDS011;73177;51.584;5.188;2023-10-13T03:23:55;19.25;;;9.93;;
83272;SDS011;73177;51.584;5.188;2023-10-13T03:26:21;26.35;;;10.57;;
83272;SDS011;73177;51.584;5.188;2023-10-13T03:28:47;25.23;;;11.82;;
83272;SDS011;73177;51.584;5.188;2023-10-13T03:31:22;25.25;;;10.80;;
83272;SDS011;73177;51.584;5.188;2023-10-13T03:33:53;26.08;;;11.05;;
83272;SDS011;73177;51.584;5.188;2023-10-13T03:36:24;24.60;;;12.52;;
83272;SDS011;73177;51.584;5.188;2023-10-13T03:39:13;32.85;;;13.38;;
83272;SDS011;73177;51.584;5.188;2023-10-13T03:41:39;31.80;;;14.20;;
83272;SDS011;73177;51.584;5.188;2023-10-13T03:44:05;34.50;;;14.98;;
83272;SDS011;73177;51.584;5.188;2023-10-13T03:46:38;44.65;;;16.85;;
83272;SDS011;73177;51.584;5.188;2023-10-13T03:49:06;42.17;;;18.05;;
83272;SDS011;73177;51.584;5.188;2023-10-13T03:51:37;40.72;;;17.60;;
83272;SDS011;73177;51.584;5.188;2023-10-13T03:54:04;39.80;;;17.55;;
83272;SDS011;73177;51.584;5.188;2023-10-13T03:56:32;53.00;;;21.10;;
83272;SDS011;73177;51.584;5.188;2023-10-13T03:59:04;51.88;;;20.17;;
83272;SDS011;73177;51.584;5.188;2023-10-13T04:01:43;51.17;;;21.70;;
83272;SDS011;73177;51.584;5.188;2023-10-13T04:04:13;55.92;;;22.00;;
83272;SDS011;73177;51.584;5.188;2023-10-13T04:06:58;55.75;;;22.48;;
83272;SDS011;73177;51.584;5.188;2023-10-13T04:09:39;46.17;;;19.98;;
83272;SDS011;73177;51.584;5.188;2023-10-13T04:12:05;53.90;;;21.63;;
83272;SDS011;73177;51.584;5.188;2023-10-13T04:14:40;58.97;;;23.23;;
83272;SDS011;73177;51.584;5.188;2023-10-13T04:17:23;46.00;;;20.33;;
83272;SDS011;73177;51.584;5.188;2023-10-13T04:19:51;52.65;;;21.95;;
83272;SDS011;73177;51.584;5.188;2023-10-13T04:22:34;48.53;;;21.35;;
83272;SDS011;73177;51.584;5.188;2023-10-13T04:25:17;47.65;;;19.50;;
83272;SDS011;73177;51.584;5.188;2023-10-13T04:28:08;40.88;;;19.10;;
83272;SDS011;73177;51.584;5.188;2023-10-13T04:30:42;44.15;;;19.33;;
83272;SDS011;73177;51.584;5.188;2023-10-13T04:33:18;40.85;;;18.05;;
83272;SDS011;73177;51.584;5.188;2023-10-13T04:38:53;30.25;;;13.57;;
83272;SDS011;73177;51.584;5.188;2023-10-13T04:41:25;34.47;;;16.20;;
83272;SDS011;73177;51.584;5.188;2023-10-13T04:44:11;30.35;;;15.25;;
83272;SDS011;73177;51.584;5.188;2023-10-13T04:46:57;28.95;;;15.18;;
83272;SDS011;73177;51.584;5.188;2023-10-13T04:49:23;29.90;;;12.70;;
83272;SDS011;73177;51.584;5.188;2023-10-13T04:52:14;32.80;;;14.05;;
83272;SDS011;73177;51.584;5.188;2023-10-13T04:55:01;30.95;;;12.65;;
83272;SDS011;73177;51.584;5.188;2023-10-13T04:57:45;21.83;;;12.02;;
83272;SDS011;73177;51.584;5.188;2023-10-13T05:00:11;23.20;;;9.70;;
83272;SDS011;73177;51.584;5.188;2023-10-13T05:02:37;21.67;;;10.40;;
83272;SDS011;73177;51.584;5.188;2023-10-13T05:05:11;23.83;;;10.68;;
83272;SDS011;73177;51.584;5.188;2023-10-13T05:07:38;18.63;;;10.32;;
83272;SDS011;73177;51.584;5.188;2023-10-13T05:10:22;20.00;;;10.52;;
83272;SDS011;73177;51.584;5.188;2023-10-13T05:13:06;20.30;;;10.23;;
83272;SDS011;73177;51.584;5.188;2023-10-13T05:15:50;15.55;;;9.48;;
83272;SDS011;73177;51.584;5.188;2023-10-13T05:18:35;18.67;;;9.50;;
83272;SDS011;73177;51.584;5.188;2023-10-13T05:21:19;21.17;;;10.30;;
83272;SDS011;73177;51.584;5.188;2023-10-13T05:24:03;20.23;;;10.02;;
83272;SDS011;73177;51.584;5.188;2023-10-13T05:26:48;22.27;;;10.63;;
83272;SDS011;73177;51.584;5.188;2023-10-13T05:29:32;24.08;;;10.07;;
83272;SDS011;73177;51.584;5.188;2023-10-13T05:32:24;18.27;;;10.25;;
83272;SDS011;73177;51.584;5.188;2023-10-13T05:35:09;23.15;;;11.63;;
83272;SDS011;73177;51.584;5.188;2023-10-13T05:37:53;19.90;;;10.45;;
83272;SDS011;73177;51.584;5.188;2023-10-13T05:40:37;18.42;;;10.80;;
83272;SDS011;73177;51.584;5.188;2023-10-13T05:46:05;18.85;;;9.70;;
83272;SDS011;73177;51.584;5.188;2023-10-13T05:48:34;20.95;;;11.20;;
83272;SDS011;73177;51.584;5.188;2023-10-13T05:51:17;20.13;;;10.27;;
83272;SDS011;73177;51.584;5.188;2023-10-13T05:54:05;22.90;;;10.60;;
83272;SDS011;73177;51.584;5.188;2023-10-13T05:56:43;18.67;;;9.52;;
83272;SDS011;73177;51.584;5.188;2023-10-13T05:59:28;22.52;;;9.60;;
83272;SDS011;73177;51.584;5.188;2023-10-13T06:02:13;16.52;;;10.18;;
83272;SDS011;73177;51.584;5.188;2023-10-13T06:05:05;19.17;;;9.80;;
83272;SDS011;73177;51.584;5.188;2023-10-13T06:07:54;21.90;;;9.27;;
83272;SDS011;73177;51.584;5.188;2023-10-13T06:10:38;20.92;;;10.02;;
83272;SDS011;73177;51.584;5.188;2023-10-13T06:13:23;21.27;;;8.85;;
83272;SDS011;73177;51.584;5.188;2023-10-13T06:16:11;20.27;;;10.32;;
83272;SDS011;73177;51.584;5.188;2023-10-13T06:18:56;20.60;;;10.35;;
83272;SDS011;73177;51.584;5.188;2023-10-13T06:21:40;22.33;;;9.82;;
83272;SDS011;73177;51.584;5.188;2023-10-13T06:24:25;22.60;;;10.05;;
83272;SDS011;73177;51.584;5.188;2023-10-13T06:29:53;17.17;;;8.63;;
83272;SDS011;73177;51.584;5.188;2023-10-13T06:32:21;19.90;;;9.00;;
83272;SDS011;73177;51.584;5.188;2023-10-13T06:34:54;17.10;;;9.05;;
83272;SDS011;73177;51.584;5.188;2023-10-13T06:37:23;19.55;;;7.68;;
83272;SDS011;73177;51.584;5.188;2023-10-13T06:39:53;18.15;;;8.80;;
83272;SDS011;73177;51.584;5.188;2023-10-13T06:44:52;20.83;;;8.48;;
83272;SDS011;73177;51.584;5.188;2023-10-13T06:47:19;17.83;;;9.10;;
83272;SDS011;73177;51.584;5.188;2023-10-13T06:49:45;17.50;;;8.55;;
83272;SDS011;73177;51.584;5.188;2023-10-13T06:52:13;22.05;;;9.55;;
83272;SDS011;73177;51.584;5.188;2023-10-13T06:54:41;21.45;;;8.35;;
83272;SDS011;73177;51.584;5.188;2023-10-13T06:57:08;20.52;;;9.02;;
83272;SDS011;73177;51.584;5.188;2023-10-13T06:59:39;18.30;;;9.25;;
83272;SDS011;73177;51.584;5.188;2023-10-13T07:02:06;16.75;;;9.07;;
83272;SDS011;73177;51.584;5.188;2023-10-13T07:04:34;20.25;;;9.77;;
83272;SDS011;73177;51.584;5.188;2023-10-13T07:07:04;21.60;;;8.80;;
83272;SDS011;73177;51.584;5.188;2023-10-13T07:09:31;20.95;;;10.10;;
83272;SDS011;73177;51.584;5.188;2023-10-13T07:11:59;23.17;;;9.15;;
83272;SDS011;73177;51.584;5.188;2023-10-13T07:14:31;21.75;;;9.95;;
83272;SDS011;73177;51.584;5.188;2023-10-13T07:17:02;23.27;;;8.68;;
83272;SDS011;73177;51.584;5.188;2023-10-13T07:19:30;21.35;;;8.93;;
83272;SDS011;73177;51.584;5.188;2023-10-13T07:21:57;18.50;;;7.65;;
83272;SDS011;73177;51.584;5.188;2023-10-13T07:24:44;18.75;;;7.90;;
83272;SDS011;73177;51.584;5.188;2023-10-13T07:27:17;23.42;;;8.90;;
83272;SDS011;73177;51.584;5.188;2023-10-13T07:29:53;19.13;;;6.82;;
83272;SDS011;73177;51.584;5.188;2023-10-13T07:32:42;16.20;;;6.55;;
83272;SDS011;73177;51.584;5.188;2023-10-13T07:35:11;16.63;;;6.95;;
83272;SDS011;73177;51.584;5.188;2023-10-13T07:37:37;14.68;;;7.45;;
83272;SDS011;73177;51.584;5.188;2023-10-13T07:40:06;16.95;;;7.13;;
83272;SDS011;73177;51.584;5.188;2023-10-13T07:43:07;19.33;;;6.38;;
83272;SDS011;73177;51.584;5.188;2023-10-13T07:45:39;17.75;;;6.93;;
83272;SDS011;73177;51.584;5.188;2023-10-13T07:48:06;23.17;;;6.78;;
83272;SDS011;73177;51.584;5.188;2023-10-13T07:50:43;21.77;;;7.03;;
83272;SDS011;73177;51.584;5.188;2023-10-13T07:53:10;19.48;;;5.70;;
83272;SDS011;73177;51.584;5.188;2023-10-13T07:55:48;10.68;;;5.25;;
83272;SDS011;73177;51.584;5.188;2023-10-13T07:58:20;14.73;;;6.88;;
83272;SDS011;73177;51.584;5.188;2023-10-13T08:00:45;19.60;;;6.53;;
83272;SDS011;73177;51.584;5.188;2023-10-13T08:03:11;19.60;;;5.50;;
83272;SDS011;73177;51.584;5.188;2023-10-13T08:05:40;18.75;;;6.72;;
83272;SDS011;73177;51.584;5.188;2023-10-13T08:08:23;13.52;;;5.28;;
83272;SDS011;73177;51.584;5.188;2023-10-13T08:11:05;12.80;;;5.07;;
83272;SDS011;73177;51.584;5.188;2023-10-13T08:13:53;16.38;;;4.90;;
83272;SDS011;73177;51.584;5.188;2023-10-13T08:16:20;14.93;;;5.97;;
83272;SDS011;73177;51.584;5.188;2023-10-13T08:18:49;15.18;;;5.72;;
83272;SDS011;73177;51.584;5.188;2023-10-13T08:21:16;15.88;;;6.40;;
83272;SDS011;73177;51.584;5.188;2023-10-13T08:23:48;18.00;;;5.57;;
83272;SDS011;73177;51.584;5.188;2023-10-13T08:29:03;13.13;;;5.63;;
83272;SDS011;73177;51.584;5.188;2023-10-13T08:31:58;15.60;;;5.75;;
83272;SDS011;73177;51.584;5.188;2023-10-13T08:34:39;19.10;;;5.55;;
83272;SDS011;73177;51.584;5.188;2023-10-13T08:37:07;15.38;;;5.28;;
83272;SDS011;73177;51.584;5.188;2023-10-13T08:39:49;15.05;;;5.32;;
83272;SDS011;73177;51.584;5.188;2023-10-13T08:42:39;18.13;;;4.65;;
83272;SDS011;73177;51.584;5.188;2023-10-13T08:45:14;13.37;;;5.33;;
83272;SDS011;73177;51.584;5.188;2023-10-13T08:47:56;17.23;;;5.68;;
83272;SDS011;73177;51.584;5.188;2023-10-13T08:50:48;13.65;;;5.28;;
83272;SDS011;73177;51.584;5.188;2023-10-13T08:53:18;19.23;;;5.28;;
83272;SDS011;73177;51.584;5.188;2023-10-13T08:58:32;12.73;;;6.03;;
83272;SDS011;73177;51.584;5.188;2023-10-13T09:04:03;17.50;;;5.50;;
83272;SDS011;73177;51.584;5.188;2023-10-13T09:06:52;12.27;;;5.55;;
83272;SDS011;73177;51.584;5.188;2023-10-13T09:09:31;16.38;;;5.07;;
83272;SDS011;73177;51.584;5.188;2023-10-13T09:12:11;14.82;;;5.35;;
83272;SDS011;73177;51.584;5.188;2023-10-13T09:14:51;13.60;;;5.50;;
83272;SDS011;73177;51.584;5.188;2023-10-13T09:17:49;20.25;;;5.82;;
83272;SDS011;73177;51.584;5.188;2023-10-13T09:20:30;8.18;;;4.43;;
83272;SDS011;73177;51.584;5.188;2023-10-13T09:23:11;13.52;;;4.70;;
83272;SDS011;73177;51.584;5.188;2023-10-13T09:26:13;15.88;;;5.50;;
83272;SDS011;73177;51.584;5.188;2023-10-13T09:28:47;9.88;;;4.85;;
83272;SDS011;73177;51.584;5.188;2023-10-13T09:31:25;13.07;;;5.65;;
83272;SDS011;73177;51.584;5.188;2023-10-13T09:33:57;13.00;;;5.78;;
83272;SDS011;73177;51.584;5.188;2023-10-13T09:36:49;12.38;;;5.70;;
83272;SDS011;73177;51.584;5.188;2023-10-13T09:39:30;13.10;;;5.25;;
83272;SDS011;73177;51.584;5.188;2023-10-13T09:42:10;16.65;;;5.90;;
83272;SDS011;73177;51.584;5.188;2023-10-13T09:44:51;15.32;;;4.45;;
83272;SDS011;73177;51.584;5.188;2023-10-13T09:47:29;12.20;;;4.88;;
83272;SDS011;73177;51.584;5.188;2023-10-13T09:50:02;16.17;;;5.43;;
83272;SDS011;73177;51.584;5.188;2023-10-13T09:52:31;15.23;;;6.18;;
83272;SDS011;73177;51.584;5.188;2023-10-13T09:55:30;11.85;;;4.35;;
83272;SDS011;73177;51.584;5.188;2023-10-13T09:58:07;12.77;;;5.43;;
83272;SDS011;73177;51.584;5.188;2023-10-13T10:00:46;15.50;;;5.47;;
83272;SDS011;73177;51.584;5.188;2023-10-13T10:03:23;15.55;;;5.40;;
83272;SDS011;73177;51.584;5.188;2023-10-13T10:06:07;9.77;;;4.43;;
83272;SDS011;73177;51.584;5.188;2023-10-13T10:08:47;12.93;;;5.70;;
83272;SDS011;73177;51.584;5.188;2023-10-13T10:11:26;13.00;;;4.63;;
83272;SDS011;73177;51.584;5.188;2023-10-13T10:14:16;11.05;;;4.88;;
83272;SDS011;73177;51.584;5.188;2023-10-13T10:17:06;11.07;;;4.53;;
83272;SDS011;73177;51.584;5.188;2023-10-13T10:19:53;13.68;;;4.97;;
83272;SDS011;73177;51.584;5.188;2023-10-13T10:22:30;13.00;;;4.93;;
83272;SDS011;73177;51.584;5.188;2023-10-13T10:25:03;14.73;;;4.88;;
83272;SDS011;73177;51.584;5.188;2023-10-13T10:27:32;18.92;;;5.18;;
83272;SDS011;73177;51.584;5.188;2023-10-13T10:29:59;16.48;;;5.38;;
83272;SDS011;73177;51.584;5.188;2023-10-13T10:32:39;14.90;;;5.10;;
83272;SDS011;73177;51.584;5.188;2023-10-13T10:35:23;15.35;;;4.55;;
83272;SDS011;73177;51.584;5.188;2023-10-13T10:38:18;20.08;;;5.10;;
83272;SDS011;73177;51.584;5.188;2023-10-13T10:41:05;17.10;;;4.85;;
83272;SDS011;73177;51.584;5.188;2023-10-13T10:43:44;12.85;;;5.10;;
83272;SDS011;73177;51.584;5.188;2023-10-13T10:49:19;14.32;;;4.90;;
83272;SDS011;73177;51.584;5.188;2023-10-13T10:52:06;19.23;;;5.95;;
83272;SDS011;73177;51.584;5.188;2023-10-13T10:54:43;14.52;;;5.22;;
83272;SDS011;73177;51.584;5.188;2023-10-13T10:57:19;15.77;;;5.07;;
83272;SDS011;73177;51.584;5.188;2023-10-13T10:59:45;15.20;;;5.63;;
83272;SDS011;73177;51.584;5.188;2023-10-13T11:02:17;15.52;;;6.05;;
83272;SDS011;73177;51.584;5.188;2023-10-13T11:04:52;12.32;;;5.68;;
83272;SDS011;73177;51.584;5.188;2023-10-13T11:07:24;14.80;;;5.95;;
83272;SDS011;73177;51.584;5.188;2023-10-13T11:10:09;16.08;;;5.88;;
83272;SDS011;73177;51.584;5.188;2023-10-13T11:12:55;14.68;;;5.50;;
83272;SDS011;73177;51.584;5.188;2023-10-13T11:15:55;18.25;;;6.35;;
83272;SDS011;73177;51.584;5.188;2023-10-13T11:18:31;22.30;;;6.07;;
83272;SDS011;73177;51.584;5.188;2023-10-13T11:21:03;17.65;;;5.78;;
83272;SDS011;73177;51.584;5.188;2023-10-13T11:23:32;20.60;;;5.90;;
83272;SDS011;73177;51.584;5.188;2023-10-13T11:26:09;7.30;;;4.05;;
83272;SDS011;73177;51.584;5.188;2023-10-13T11:28:34;26.08;;;8.30;;
83272;SDS011;73177;51.584;5.188;2023-10-13T11:31:03;17.48;;;5.80;;
83272;SDS011;73177;51.584;5.188;2023-10-13T11:33:44;12.82;;;5.15;;
83272;SDS011;73177;51.584;5.188;2023-10-13T11:36:13;17.13;;;6.40;;
83272;SDS011;73177;51.584;5.188;2023-10-13T11:38:42;18.25;;;5.60;;
83272;SDS011;73177;51.584;5.188;2023-10-13T11:41:13;19.42;;;6.70;;
83272;SDS011;73177;51.584;5.188;2023-10-13T11:43:48;24.67;;;5.95;;
83272;SDS011;73177;51.584;5.188;2023-10-13T11:46:15;23.48;;;5.82;;
83272;SDS011;73177;51.584;5.188;2023-10-13T11:48:42;23.98;;;5.95;;
83272;SDS011;73177;51.584;5.188;2023-10-13T11:51:11;16.27;;;5.38;;
83272;SDS011;73177;51.584;5.188;2023-10-13T11:53:43;17.00;;;6.57;;
83272;SDS011;73177;51.584;5.188;2023-10-13T11:56:19;19.50;;;5.97;;
83272;SDS011;73177;51.584;5.188;2023-10-13T11:58:49;18.83;;;5.65;;
83272;SDS011;73177;51.584;5.188;2023-10-13T12:01:15;14.18;;;5.53;;
83272;SDS011;73177;51.584;5.188;2023-10-13T12:03:47;18.13;;;5.70;;
83272;SDS011;73177;51.584;5.188;2023-10-13T12:06:32;16.85;;;5.35;;
83272;SDS011;73177;51.584;5.188;2023-10-13T12:11:45;21.77;;;5.78;;
83272;SDS011;73177;51.584;5.188;2023-10-13T12:14:12;21.08;;;6.40;;
83272;SDS011;73177;51.584;5.188;2023-10-13T12:16:43;19.45;;;5.82;;
83272;SDS011;73177;51.584;5.188;2023-10-13T12:19:13;12.52;;;4.95;;
83272;SDS011;73177;51.584;5.188;2023-10-13T12:21:41;13.30;;;5.55;;
83272;SDS011;73177;51.584;5.188;2023-10-13T12:24:08;11.82;;;4.88;;
83272;SDS011;73177;51.584;5.188;2023-10-13T12:26:47;16.75;;;5.70;;
83272;SDS011;73177;51.584;5.188;2023-10-13T12:29:13;15.65;;;5.70;;
83272;SDS011;73177;51.584;5.188;2023-10-13T12:31:47;22.10;;;6.05;;
83272;SDS011;73177;51.584;5.188;2023-10-13T12:34:26;10.93;;;4.93;;
83272;SDS011;73177;51.584;5.188;2023-10-13T12:37:11;15.20;;;5.07;;
83272;SDS011;73177;51.584;5.188;2023-10-13T12:39:57;19.73;;;5.45;;
83272;SDS011;73177;51.584;5.188;2023-10-13T12:42:40;22.00;;;4.75;;
83272;SDS011;73177;51.584;5.188;2023-10-13T12:45:24;20.33;;;4.97;;
83272;SDS011;73177;51.584;5.188;2023-10-13T12:48:08;13.52;;;4.95;;
83272;SDS011;73177;51.584;5.188;2023-10-13T12:50:52;15.07;;;5.15;;
83272;SDS011;73177;51.584;5.188;2023-10-13T12:53:33;16.73;;;5.30;;
83272;SDS011;73177;51.584;5.188;2023-10-13T12:55:58;20.02;;;4.95;;
83272;SDS011;73177;51.584;5.188;2023-10-13T12:58:24;16.98;;;5.70;;
83272;SDS011;73177;51.584;5.188;2023-10-13T13:00:52;12.23;;;5.07;;
83272;SDS011;73177;51.584;5.188;2023-10-13T13:03:24;13.15;;;4.78;;
83272;SDS011;73177;51.584;5.188;2023-10-13T13:05:54;13.52;;;5.28;;
83272;SDS011;73177;51.584;5.188;2023-10-13T13:08:20;17.55;;;5.63;;
83272;SDS011;73177;51.584;5.188;2023-10-13T13:10:47;13.93;;;5.38;;
83272;SDS011;73177;51.584;5.188;2023-10-13T13:13:13;14.52;;;5.10;;
83272;SDS011;73177;51.584;5.188;2023-10-13T13:15:41;18.75;;;5.05;;
83272;SDS011;73177;51.584;5.188;2023-10-13T13:18:07;12.52;;;4.70;;
83272;SDS011;73177;51.584;5.188;2023-10-13T13:20:36;14.85;;;4.32;;
83272;SDS011;73177;51.584;5.188;2023-10-13T13:23:08;13.98;;;4.90;;
83272;SDS011;73177;51.584;5.188;2023-10-13T13:25:37;13.45;;;4.68;;
83272;SDS011;73177;51.584;5.188;2023-10-13T13:28:07;14.90;;;4.18;;
83272;SDS011;73177;51.584;5.188;2023-10-13T13:30:34;17.73;;;4.70;;
83272;SDS011;73177;51.584;5.188;2023-10-13T13:33:02;14.88;;;5.05;;
83272;SDS011;73177;51.584;5.188;2023-10-13T13:35:36;9.18;;;4.15;;
83272;SDS011;73177;51.584;5.188;2023-10-13T13:38:03;16.10;;;4.82;;
83272;SDS011;73177;51.584;5.188;2023-10-13T13:40:38;10.88;;;4.15;;
83272;SDS011;73177;51.584;5.188;2023-10-13T13:43:03;14.02;;;4.53;;
83272;SDS011;73177;51.584;5.188;2023-10-13T13:45:28;11.45;;;3.78;;
83272;SDS011;73177;51.584;5.188;2023-10-13T13:47:54;14.10;;;4.80;;
83272;SDS011;73177;51.584;5.188;2023-10-13T13:50:23;12.98;;;4.15;;
83272;SDS011;73177;51.584;5.188;2023-10-13T13:52:54;12.48;;;3.65;;
83272;SDS011;73177;51.584;5.188;2023-10-13T13:55:21;15.18;;;4.53;;
83272;SDS011;73177;51.584;5.188;2023-10-13T13:57:56;11.38;;;4.38;;
83272;SDS011;73177;51.584;5.188;2023-10-13T14:00:32;10.43;;;4.07;;
83272;SDS011;73177;51.584;5.188;2023-10-13T14:03:11;13.57;;;4.65;;
83272;SDS011;73177;51.584;5.188;2023-10-13T14:06:09;10.95;;;4.38;;
83272;SDS011;73177;51.584;5.188;2023-10-13T14:08:41;12.20;;;4.07;;
83272;SDS011;73177;51.584;5.188;2023-10-13T14:11:09;17.50;;;5.22;;
83272;SDS011;73177;51.584;5.188;2023-10-13T14:13:38;8.73;;;3.05;;
83272;SDS011;73177;51.584;5.188;2023-10-13T14:16:17;12.85;;;4.85;;
83272;SDS011;73177;51.584;5.188;2023-10-13T14:18:46;14.43;;;4.13;;
83272;SDS011;73177;51.584;5.188;2023-10-13T14:21:12;12.18;;;4.75;;
83272;SDS011;73177;51.584;5.188;2023-10-13T14:26:11;12.60;;;4.13;;
83272;SDS011;73177;51.584;5.188;2023-10-13T14:28:41;13.85;;;4.20;;
83272;SDS011;73177;51.584;5.188;2023-10-13T14:31:33;15.25;;;4.90;;
83272;SDS011;73177;51.584;5.188;2023-10-13T14:34:06;15.10;;;4.88;;
83272;SDS011;73177;51.584;5.188;2023-10-13T14:36:43;15.50;;;4.53;;
83272;SDS011;73177;51.584;5.188;2023-10-13T14:39:15;17.52;;;4.72;;
83272;SDS011;73177;51.584;5.188;2023-10-13T14:41:41;9.73;;;4.00;;
83272;SDS011;73177;51.584;5.188;2023-10-13T14:44:09;12.15;;;4.10;;
83272;SDS011;73177;51.584;5.188;2023-10-13T14:46:37;10.98;;;4.28;;
83272;SDS011;73177;51.584;5.188;2023-10-13T14:49:07;16.40;;;5.22;;
83272;SDS011;73177;51.584;5.188;2023-10-13T14:51:34;9.50;;;4.10;;
83272;SDS011;73177;51.584;5.188;2023-10-13T14:54:07;14.40;;;4.35;;
83272;SDS011;73177;51.584;5.188;2023-10-13T14:56:33;13.75;;;3.92;;
83272;SDS011;73177;51.584;5.188;2023-10-13T14:58:59;12.07;;;4.28;;
83272;SDS011;73177;51.584;5.188;2023-10-13T15:01:27;13.38;;;5.53;;
83272;SDS011;73177;51.584;5.188;2023-10-13T15:03:54;12.20;;;4.47;;
83272;SDS011;73177;51.584;5.188;2023-10-13T15:06:25;10.30;;;4.25;;
83272;SDS011;73177;51.584;5.188;2023-10-13T15:09:01;14.00;;;4.82;;
83272;SDS011;73177;51.584;5.188;2023-10-13T15:11:28;17.15;;;5.22;;
83272;SDS011;73177;51.584;5.188;2023-10-13T15:14:03;11.57;;;5.18;;
83272;SDS011;73177;51.584;5.188;2023-10-13T15:16:37;16.50;;;4.90;;
83272;SDS011;73177;51.584;5.188;2023-10-13T15:21:38;13.77;;;4.65;;
83272;SDS011;73177;51.584;5.188;2023-10-13T15:24:05;18.40;;;5.85;;
83272;SDS011;73177;51.584;5.188;2023-10-13T15:26:46;16.20;;;5.78;;
83272;SDS011;73177;51.584;5.188;2023-10-13T15:29:18;17.02;;;4.72;;
83272;SDS011;73177;51.584;5.188;2023-10-13T15:31:50;17.67;;;5.05;;
83272;SDS011;73177;51.584;5.188;2023-10-13T15:34:25;10.45;;;4.13;;
83272;SDS011;73177;51.584;5.188;2023-10-13T15:36:52;14.85;;;5.32;;
83272;SDS011;73177;51.584;5.188;2023-10-13T15:39:19;14.25;;;4.75;;
83272;SDS011;73177;51.584;5.188;2023-10-13T15:41:49;10.80;;;4.65;;
83272;SDS011;73177;51.584;5.188;2023-10-13T15:44:18;9.57;;;4.68;;
83272;SDS011;73177;51.584;5.188;2023-10-13T15:46:45;12.95;;;4.72;;
83272;SDS011;73177;51.584;5.188;2023-10-13T15:49:14;9.65;;;4.72;;
83272;SDS011;73177;51.584;5.188;2023-10-13T15:51:40;12.30;;;4.63;;